KSUE/SUE METAR and TAF weather

Enter ICAO airport designator
Station Type Date Time Source
KSUE METAR 2020/04/02 03:56 UTC NOAA

KSUE 020356Z AUTO 00000KT 10SM CLR 02/01 A3013 RMK AO2 SLP209 T00220011 FZRANO


Station Type Date Time Source
KSUE Decoded METAR 2020/04/02 03:56 UTC NOAA

Sturgeon Bay, WI, United States (KSUE) 44-51N 087-25W
Apr 01, 2020 - 11:56 PM EDT / 2020.04.02 0356 UTC
Wind: Calm:0
Visibility: 10 mile(s):0
Sky conditions: clear
Temperature: 36.0 F (2.2 C)
Dew Point: 34.0 F (1.1 C)
Relative Humidity: 92%
Pressure (altimeter): 30.13 in. Hg (1020 hPa)
ob: KSUE 020356Z AUTO 00000KT 10SM CLR 02/01 A3013 RMK AO2 SLP209 T00220011 FZRANO
cycle: 4

Station Type Date Time Source
KSUE TAF UTC NOAA

Error!

Example: see airport list